createdAt,value
2023-01-23T00:00:17.107Z,2.15
2023-01-23T00:03:11.703Z,2.15
2023-01-23T00:05:46.294Z,2.15
2023-01-23T00:08:21.731Z,2.18
2023-01-23T00:10:56.517Z,2.21
2023-01-23T00:13:31.766Z,2.22
2023-01-23T00:16:11.581Z,2.25
2023-01-23T00:18:46.243Z,2.22
2023-01-23T00:21:24.038Z,2.19
2023-01-23T00:24:01.640Z,2.18
2023-01-23T00:26:37.642Z,2.12
2023-01-23T00:29:15.654Z,2.12
2023-01-23T00:31:50.471Z,2.12
2023-01-23T00:34:25.359Z,2.13
2023-01-23T00:37:00.111Z,2.17
2023-01-23T00:39:34.810Z,2.17
2023-01-23T00:42:09.861Z,2.18
2023-01-23T00:44:44.574Z,2.17
2023-01-23T00:47:19.312Z,2.16
2023-01-23T00:49:55.433Z,2.15
2023-01-23T00:52:30.608Z,2.15
2023-01-23T00:55:05.956Z,2.15
2023-01-23T00:57:40.555Z,2.16
2023-01-23T01:00:18.549Z,2.17
2023-01-23T01:02:53.449Z,2.19
2023-01-23T01:05:28.796Z,2.18
2023-01-23T01:08:03.809Z,2.20
2023-01-23T01:10:40.897Z,2.21
2023-01-23T01:13:19.282Z,2.21
2023-01-23T01:15:55.406Z,2.20
2023-01-23T01:18:31.060Z,2.14
2023-01-23T01:21:09.274Z,2.12
2023-01-23T01:23:44.345Z,2.11
2023-01-23T01:26:19.351Z,2.11
2023-01-23T01:28:53.999Z,2.12
2023-01-23T01:31:28.844Z,2.14
2023-01-23T01:34:03.767Z,2.13
2023-01-23T01:36:38.490Z,2.14
2023-01-23T01:39:13.115Z,2.15
2023-01-23T01:41:49.695Z,2.17
2023-01-23T01:44:28.065Z,2.15
2023-01-23T01:47:03.753Z,2.14
2023-01-23T01:49:38.590Z,2.13
2023-01-23T01:52:15.746Z,2.13
2023-01-23T01:54:54.312Z,2.08
2023-01-23T01:57:33.774Z,2.04
2023-01-23T02:00:13.338Z,2.05
2023-01-23T02:02:58.925Z,2.04
2023-01-23T02:05:40.929Z,2.03
2023-01-23T02:08:20.140Z,2.02
2023-01-23T02:10:55.210Z,2.01
2023-01-23T02:13:36.196Z,2.02
2023-01-23T02:16:16.000Z,2.04
2023-01-23T02:18:54.965Z,2.03
2023-01-23T02:21:30.427Z,2.04
2023-01-23T02:24:21.281Z,2.02
2023-01-23T02:26:57.439Z,2.01
2023-01-23T02:29:44.479Z,2.00
2023-01-23T02:32:22.153Z,2.01
2023-01-23T02:34:59.742Z,2.01
2023-01-23T02:37:35.710Z,1.99
2023-01-23T02:40:13.862Z,2.00
2023-01-23T02:42:50.548Z,2.01
2023-01-23T02:45:25.956Z,2.00
2023-01-23T02:48:01.714Z,2.00
2023-01-23T02:50:36.831Z,2.01
2023-01-23T02:53:11.758Z,2.02
2023-01-23T02:55:46.421Z,2.03
2023-01-23T02:58:39.324Z,2.04
2023-01-23T03:01:14.401Z,2.03
2023-01-23T03:03:51.531Z,2.05
2023-01-23T03:06:26.796Z,2.06
2023-01-23T03:09:03.369Z,2.06
2023-01-23T03:11:40.241Z,2.05
2023-01-23T03:14:20.611Z,2.06
2023-01-23T03:16:55.305Z,2.06
2023-01-23T03:19:32.595Z,2.06
2023-01-23T03:22:07.320Z,2.06
2023-01-23T03:24:42.297Z,2.06
2023-01-23T03:27:16.995Z,2.09
2023-01-23T03:30:12.404Z,2.11
2023-01-23T03:32:48.569Z,2.11
2023-01-23T03:35:23.595Z,2.11
2023-01-23T03:38:00.573Z,2.12
2023-01-23T03:40:53.685Z,2.14
2023-01-23T03:43:33.638Z,2.13
2023-01-23T03:46:08.653Z,2.14
2023-01-23T03:48:43.588Z,2.15
2023-01-23T03:51:18.280Z,2.15
2023-01-23T03:53:53.168Z,2.15
2023-01-23T03:56:28.036Z,2.16
2023-01-23T03:59:03.971Z,2.17
2023-01-23T04:01:39.418Z,2.16
2023-01-23T04:04:14.046Z,2.17
2023-01-23T04:06:48.775Z,2.18
2023-01-23T04:09:27.670Z,2.18
2023-01-23T04:12:03.956Z,2.19
2023-01-23T04:14:40.993Z,2.20
2023-01-23T04:17:16.266Z,2.20
2023-01-23T04:19:50.950Z,2.19
2023-01-23T04:22:25.576Z,2.18
2023-01-23T04:25:00.158Z,2.17
2023-01-23T04:27:35.673Z,2.17
2023-01-23T04:30:15.759Z,2.15
2023-01-23T04:32:50.497Z,2.14
2023-01-23T04:35:26.222Z,2.15
2023-01-23T04:38:01.489Z,2.18
2023-01-23T04:40:36.364Z,2.18
2023-01-23T04:43:12.211Z,2.19
2023-01-23T04:45:53.101Z,2.19
2023-01-23T04:48:57.950Z,2.20
2023-01-23T04:51:32.793Z,2.21
2023-01-23T04:54:07.721Z,2.23
2023-01-23T04:56:42.992Z,2.24
2023-01-23T04:59:18.474Z,2.26
2023-01-23T05:01:53.158Z,2.31
2023-01-23T05:04:29.256Z,2.26
2023-01-23T05:07:03.906Z,2.19
2023-01-23T05:09:41.485Z,2.16
2023-01-23T05:12:16.301Z,2.16
2023-01-23T05:14:51.370Z,2.18
2023-01-23T05:17:26.212Z,2.16
2023-01-23T05:20:01.599Z,2.13
2023-01-23T05:22:36.414Z,2.13
2023-01-23T05:25:12.953Z,2.08
2023-01-23T05:27:47.671Z,2.10
2023-01-23T05:30:24.297Z,2.13
2023-01-23T05:33:01.241Z,2.15
2023-01-23T05:35:35.925Z,2.12
2023-01-23T05:38:10.718Z,2.09
2023-01-23T05:40:45.563Z,2.11
2023-01-23T05:43:23.019Z,2.13
2023-01-23T05:46:32.889Z,2.15
2023-01-23T05:49:07.869Z,2.17
2023-01-23T05:51:42.606Z,2.20
2023-01-23T05:54:19.278Z,2.21
2023-01-23T05:56:55.135Z,2.22
2023-01-23T05:59:48.524Z,2.21
2023-01-23T06:02:38.310Z,2.22
2023-01-23T06:05:19.263Z,2.23
2023-01-23T06:08:19.522Z,2.23
2023-01-23T06:10:54.308Z,2.24
2023-01-23T06:13:29.414Z,2.25
2023-01-23T06:16:04.367Z,2.25
2023-01-23T06:18:39.058Z,2.25
2023-01-23T06:21:13.662Z,2.26
2023-01-23T06:23:48.428Z,2.27
2023-01-23T06:26:23.490Z,2.27
2023-01-23T06:28:58.234Z,2.28
2023-01-23T06:31:33.381Z,2.28
2023-01-23T06:34:09.414Z,2.29
2023-01-23T06:36:48.861Z,2.29
2023-01-23T06:39:23.596Z,2.30
2023-01-23T06:41:59.243Z,2.30
2023-01-23T06:44:33.933Z,2.31
2023-01-23T06:47:08.869Z,2.34
2023-01-23T06:49:43.730Z,2.34
2023-01-23T06:52:18.735Z,2.37
2023-01-23T06:54:54.606Z,2.41
2023-01-23T06:57:29.245Z,2.43
2023-01-23T07:00:05.090Z,2.45
2023-01-23T07:02:42.952Z,2.47
2023-01-23T07:05:19.179Z,2.47
2023-01-23T07:07:55.881Z,2.47
2023-01-23T07:10:32.435Z,2.48
2023-01-23T07:13:09.730Z,2.49
2023-01-23T07:15:47.571Z,2.49
2023-01-23T07:18:22.272Z,2.48
2023-01-23T07:20:57.223Z,2.46
2023-01-23T07:23:32.100Z,2.46
2023-01-23T07:26:09.696Z,2.44
2023-01-23T07:28:44.365Z,2.41
2023-01-23T07:31:19.073Z,2.40
2023-01-23T07:33:53.834Z,2.43
2023-01-23T07:36:28.646Z,2.43
2023-01-23T07:39:03.297Z,2.42
2023-01-23T07:41:38.118Z,2.42
2023-01-23T07:44:19.864Z,2.44
2023-01-23T07:46:54.806Z,2.48
2023-01-23T07:49:29.686Z,2.51
2023-01-23T07:52:05.106Z,2.56
2023-01-23T07:54:39.861Z,2.58
2023-01-23T07:57:14.619Z,2.58
2023-01-23T07:59:49.962Z,2.60
2023-01-23T08:02:24.518Z,2.60
2023-01-23T08:04:59.154Z,2.63
2023-01-23T08:07:34.005Z,2.64
2023-01-23T08:10:11.510Z,2.67
2023-01-23T08:12:46.321Z,2.72
2023-01-23T08:15:21.280Z,2.76
2023-01-23T08:17:56.521Z,2.79
2023-01-23T08:20:31.183Z,2.82
2023-01-23T08:23:05.838Z,2.84
2023-01-23T08:25:41.989Z,2.85
2023-01-23T08:28:16.747Z,2.88
2023-01-23T08:30:51.994Z,2.89
2023-01-23T08:33:26.803Z,2.92
2023-01-23T08:36:02.319Z,2.93
2023-01-23T08:38:37.100Z,2.96
2023-01-23T08:41:13.413Z,3.00
2023-01-23T08:43:48.307Z,3.00
2023-01-23T08:46:22.951Z,3.06
2023-01-23T08:48:57.643Z,3.08
2023-01-23T08:51:32.327Z,3.12
2023-01-23T08:54:07.421Z,3.18
2023-01-23T08:56:42.657Z,3.23
2023-01-23T08:59:17.332Z,3.26
2023-01-23T09:01:52.177Z,3.30
2023-01-23T09:04:26.972Z,3.32
2023-01-23T09:07:01.675Z,3.32
2023-01-23T09:09:37.040Z,3.34
2023-01-23T09:12:12.159Z,3.41
2023-01-23T09:14:47.212Z,3.47
2023-01-23T09:17:21.999Z,3.53
2023-01-23T09:20:00.657Z,3.59
2023-01-23T09:22:35.458Z,3.65
2023-01-23T09:25:12.369Z,3.73
2023-01-23T09:27:47.381Z,3.80
2023-01-23T09:30:23.121Z,3.85
2023-01-23T09:32:58.880Z,3.86
2023-01-23T09:35:33.864Z,3.89
2023-01-23T09:38:09.463Z,3.92
2023-01-23T09:40:52.842Z,3.94
2023-01-23T09:43:36.934Z,4.01
2023-01-23T09:46:20.897Z,4.01
2023-01-23T09:49:02.137Z,4.03
2023-01-23T09:51:48.370Z,4.04
2023-01-23T09:54:34.414Z,4.04
2023-01-23T09:57:17.445Z,4.05
2023-01-23T10:00:00.289Z,4.06
2023-01-23T10:02:36.814Z,4.09
2023-01-23T10:05:16.891Z,4.13
2023-01-23T10:08:06.259Z,4.15
2023-01-23T10:11:05.168Z,4.13
2023-01-23T10:13:55.904Z,4.10
2023-01-23T10:16:51.371Z,4.04
2023-01-23T10:19:44.558Z,3.97
2023-01-23T10:22:37.100Z,3.90
2023-01-23T10:25:21.654Z,3.84
2023-01-23T10:28:17.940Z,3.79
2023-01-23T10:31:00.475Z,3.68
2023-01-23T10:33:46.919Z,3.57
2023-01-23T10:36:42.105Z,3.57
2023-01-23T10:39:29.727Z,3.56
2023-01-23T10:42:04.362Z,3.56
2023-01-23T10:44:38.965Z,3.55
2023-01-23T10:47:32.012Z,3.53
2023-01-23T10:50:09.562Z,3.52
2023-01-23T10:52:45.933Z,3.50
2023-01-23T10:55:34.380Z,3.49
2023-01-23T10:58:29.265Z,3.49
2023-01-23T11:01:04.885Z,3.50
2023-01-23T11:03:40.830Z,3.49
2023-01-23T11:06:26.091Z,3.47
2023-01-23T11:09:04.792Z,3.43
2023-01-23T11:11:41.162Z,3.42
2023-01-23T11:14:21.718Z,3.42
2023-01-23T11:17:14.369Z,3.41
2023-01-23T11:19:53.265Z,3.40
2023-01-23T11:22:40.974Z,3.41
2023-01-23T11:25:37.710Z,3.45
2023-01-23T11:28:27.355Z,3.49
2023-01-23T11:31:14.499Z,3.50
2023-01-23T11:33:57.180Z,3.52
2023-01-23T11:36:52.989Z,3.56
2023-01-23T11:39:46.342Z,3.61
2023-01-23T11:42:21.464Z,3.67
2023-01-23T11:44:57.422Z,3.73
2023-01-23T11:48:01.780Z,3.75
2023-01-23T11:50:55.294Z,3.76
2023-01-23T11:53:42.908Z,3.79
2023-01-23T11:56:47.926Z,3.80
2023-01-23T11:59:44.857Z,3.76
2023-01-23T12:03:09.628Z,3.78
2023-01-23T12:06:18.851Z,3.80
2023-01-23T12:09:05.698Z,3.78
2023-01-23T12:11:48.784Z,3.75
2023-01-23T12:14:32.329Z,3.71
2023-01-23T12:17:25.069Z,3.69
2023-01-23T12:20:22.917Z,3.70
2023-01-23T12:23:24.238Z,3.66
2023-01-23T12:26:12.936Z,3.66
2023-01-23T12:29:22.460Z,3.66
2023-01-23T12:32:13.550Z,3.68
2023-01-23T12:35:12.330Z,3.68
2023-01-23T12:38:08.237Z,3.66
2023-01-23T12:40:49.826Z,3.68
2023-01-23T12:43:35.613Z,3.66
2023-01-23T12:46:17.233Z,3.65
2023-01-23T12:49:00.990Z,3.61
2023-01-23T12:51:42.099Z,3.59
2023-01-23T12:54:25.597Z,3.60
2023-01-23T12:57:02.178Z,3.65
2023-01-23T12:59:55.964Z,3.68
2023-01-23T13:02:41.125Z,3.71
2023-01-23T13:05:24.942Z,3.73
2023-01-23T13:08:10.335Z,3.73
2023-01-23T13:11:25.180Z,3.72
2023-01-23T13:14:01.825Z,3.72
2023-01-23T13:16:46.407Z,3.66
2023-01-23T13:19:45.644Z,3.63
2023-01-23T13:22:32.504Z,3.63
2023-01-23T13:25:17.728Z,3.59
2023-01-23T13:27:59.113Z,3.56
2023-01-23T13:30:45.455Z,3.52
2023-01-23T13:33:58.768Z,3.45
2023-01-23T13:36:40.755Z,3.43
2023-01-23T13:39:32.159Z,3.45
2023-01-23T13:42:46.794Z,3.46
2023-01-23T13:45:31.893Z,3.46
2023-01-23T14:32:47.986Z,3.21
2023-01-23T14:35:40.212Z,3.20
2023-01-23T14:38:29.079Z,3.18
2023-01-23T14:41:08.894Z,3.17
2023-01-23T14:43:47.050Z,3.15
2023-01-23T14:46:36.336Z,3.15
2023-01-23T14:49:19.884Z,3.12
2023-01-23T14:52:05.198Z,3.11
2023-01-23T14:54:53.766Z,3.08
2023-01-23T14:57:32.585Z,3.06
2023-01-23T15:00:20.443Z,3.05
2023-01-23T15:02:57.114Z,3.05
2023-01-23T15:05:34.185Z,3.04
2023-01-23T15:08:26.917Z,3.03
2023-01-23T15:11:06.655Z,3.01
2023-01-23T15:13:51.313Z,3.00
2023-01-23T15:16:34.139Z,2.98
2023-01-23T15:19:23.089Z,2.98
2023-01-23T15:22:22.154Z,2.96
2023-01-23T15:25:18.614Z,2.94
2023-01-23T15:27:55.151Z,2.94
2023-01-23T15:30:48.703Z,2.92
2023-01-23T15:33:37.858Z,2.91
2023-01-23T15:36:31.869Z,2.90
2023-01-23T15:39:20.807Z,2.90
2023-01-23T15:42:02.270Z,2.90
2023-01-23T15:44:38.894Z,2.89
2023-01-23T15:47:15.514Z,2.88
2023-01-23T15:49:52.375Z,2.88
2023-01-23T15:52:31.515Z,2.87
2023-01-23T15:55:14.515Z,2.87
2023-01-23T15:57:53.165Z,2.87
2023-01-23T16:00:32.708Z,2.87
2023-01-23T16:03:09.179Z,2.87
2023-01-23T16:05:46.056Z,2.84
2023-01-23T16:08:25.545Z,2.82
2023-01-23T16:11:01.846Z,2.82
2023-01-23T16:13:38.067Z,2.81
2023-01-23T16:16:20.671Z,2.81
2023-01-23T16:18:57.002Z,2.80
2023-01-23T16:21:35.664Z,2.78
2023-01-23T16:24:25.752Z,2.78
2023-01-23T16:27:02.763Z,2.78
2023-01-23T16:29:39.367Z,2.78
2023-01-23T16:32:16.181Z,2.78
2023-01-23T16:34:52.680Z,2.79
2023-01-23T16:37:30.381Z,2.80
2023-01-23T16:40:08.203Z,2.80
2023-01-23T16:42:46.031Z,2.81
2023-01-23T16:45:29.327Z,2.81
2023-01-23T16:48:07.492Z,2.82
2023-01-23T16:50:51.140Z,2.84
2023-01-23T16:53:32.864Z,2.83
2023-01-23T16:56:09.371Z,2.84
2023-01-23T16:58:45.968Z,2.84
2023-01-23T17:01:26.263Z,2.85
2023-01-23T17:04:05.595Z,2.84
2023-01-23T17:06:42.026Z,2.86
2023-01-23T17:09:19.622Z,2.84
2023-01-23T17:11:58.868Z,2.82
2023-01-23T17:14:37.088Z,2.82
2023-01-23T17:17:26.641Z,2.79
2023-01-23T17:20:05.543Z,2.80
2023-01-23T17:22:45.188Z,2.80
2023-01-23T17:25:26.145Z,2.79
2023-01-23T17:28:12.778Z,2.77
2023-01-23T17:30:53.232Z,2.77
2023-01-23T17:33:33.793Z,2.73
2023-01-23T17:36:12.399Z,2.73
2023-01-23T17:38:48.867Z,2.72
2023-01-23T17:41:25.541Z,2.71
2023-01-23T17:44:02.010Z,2.70
2023-01-23T17:46:41.420Z,2.68
2023-01-23T17:49:32.555Z,2.64
2023-01-23T17:52:12.383Z,2.63
2023-01-23T17:54:48.841Z,2.62
2023-01-23T17:57:28.423Z,2.61
2023-01-23T18:00:05.828Z,2.59
2023-01-23T18:02:49.724Z,2.60
2023-01-23T18:05:27.221Z,2.63
2023-01-23T18:08:03.788Z,2.62
2023-01-23T18:10:41.197Z,2.62
2023-01-23T18:13:33.413Z,2.61
2023-01-23T18:16:21.224Z,2.59
2023-01-23T18:19:07.429Z,2.60
2023-01-23T18:21:46.132Z,2.60
2023-01-23T18:24:30.676Z,2.60
2023-01-23T18:27:22.543Z,2.62
2023-01-23T18:30:29.988Z,2.63
2023-01-23T18:33:30.510Z,2.63
2023-01-23T18:36:50.209Z,2.63
2023-01-23T18:40:02.208Z,2.60
2023-01-23T18:42:55.693Z,2.63
2023-01-23T18:45:34.363Z,2.62
2023-01-23T18:48:25.129Z,2.62
2023-01-23T18:51:32.987Z,2.62
2023-01-23T18:54:30.598Z,2.62
2023-01-23T18:57:40.990Z,2.62
2023-01-23T19:00:29.436Z,2.61
2023-01-23T19:03:16.981Z,2.63
2023-01-23T19:05:55.956Z,2.64
2023-01-23T19:08:35.420Z,2.63
2023-01-23T19:11:33.833Z,2.63
2023-01-23T19:14:31.333Z,2.62
2023-01-23T19:17:23.592Z,2.63
2023-01-23T19:20:22.566Z,2.62
2023-01-23T19:23:27.721Z,2.62
2023-01-23T19:26:06.236Z,2.61
2023-01-23T19:28:44.745Z,2.60
2023-01-23T19:31:28.623Z,2.61
2023-01-23T19:34:06.500Z,2.61
2023-01-23T19:36:43.098Z,2.62
2023-01-23T19:39:19.768Z,2.61
2023-01-23T19:41:56.442Z,2.63
2023-01-23T19:44:33.773Z,2.65
2023-01-23T19:47:10.356Z,2.64
2023-01-23T19:49:46.874Z,2.65
2023-01-23T19:52:24.133Z,2.64
2023-01-23T19:55:00.730Z,2.65
2023-01-23T19:57:37.080Z,2.63
2023-01-23T20:00:20.335Z,2.62
2023-01-23T20:02:58.011Z,2.62
2023-01-23T20:05:34.499Z,2.62
2023-01-23T20:08:11.579Z,2.62
2023-01-23T20:10:47.871Z,2.62
2023-01-23T20:13:24.465Z,2.60
2023-01-23T20:16:07.595Z,2.60
2023-01-23T20:18:46.376Z,2.60
2023-01-23T20:21:26.153Z,2.59
2023-01-23T20:24:02.929Z,2.60
2023-01-23T20:26:40.976Z,2.59
2023-01-23T20:29:18.572Z,2.60
2023-01-23T20:31:56.189Z,2.59
2023-01-23T20:34:34.144Z,2.59
2023-01-23T20:37:10.625Z,2.59
2023-01-23T20:39:47.222Z,2.61
2023-01-23T20:42:24.246Z,2.60
2023-01-23T20:45:00.821Z,2.59
2023-01-23T20:47:39.386Z,2.60
2023-01-23T20:50:17.779Z,2.61
2023-01-23T20:53:13.074Z,2.62
2023-01-23T20:55:55.630Z,2.63
2023-01-23T20:58:51.287Z,2.63
2023-01-23T21:01:30.821Z,2.64
2023-01-23T21:04:07.947Z,2.64
2023-01-23T21:06:44.581Z,2.65
2023-01-23T21:09:23.237Z,2.65
2023-01-23T21:12:00.513Z,2.65
2023-01-23T21:14:37.268Z,2.65
2023-01-23T21:17:14.454Z,2.66
2023-01-23T21:19:51.232Z,2.67
2023-01-23T21:22:27.571Z,2.67
2023-01-23T21:25:03.930Z,2.68
2023-01-23T21:27:40.731Z,2.68
2023-01-23T21:30:19.634Z,2.68
2023-01-23T21:32:55.919Z,2.69
2023-01-23T21:35:32.548Z,2.67
2023-01-23T21:38:09.061Z,2.68
2023-01-23T21:40:45.455Z,2.72
2023-01-23T21:43:21.733Z,2.72
2023-01-23T21:45:58.494Z,2.73
2023-01-23T21:48:37.220Z,2.73
2023-01-23T21:51:17.053Z,2.73
2023-01-23T21:53:55.248Z,2.74
2023-01-23T21:56:31.710Z,2.74
2023-01-23T21:59:07.968Z,2.74
2023-01-23T22:01:45.865Z,2.74
2023-01-23T22:04:24.054Z,2.74
2023-01-23T22:07:01.243Z,2.76
2023-01-23T22:09:37.589Z,2.77
2023-01-23T22:12:15.667Z,2.76
2023-01-23T22:14:51.999Z,2.77
2023-01-23T22:17:28.472Z,2.78
2023-01-23T22:20:06.472Z,2.77
2023-01-23T22:22:42.843Z,2.79
2023-01-23T22:25:19.761Z,2.78
2023-01-23T22:27:56.387Z,2.78
2023-01-23T22:30:32.757Z,2.76
2023-01-23T22:33:09.224Z,2.77
2023-01-23T22:35:46.622Z,2.77
2023-01-23T22:38:22.977Z,2.79
2023-01-23T22:41:05.959Z,2.78
2023-01-23T22:43:42.359Z,2.76
2023-01-23T22:46:20.534Z,2.74
2023-01-23T22:48:56.938Z,2.73
2023-01-23T22:51:34.124Z,2.74
2023-01-23T22:54:10.704Z,2.72
2023-01-23T22:56:47.052Z,2.72
2023-01-23T22:59:23.626Z,2.72
2023-01-23T23:02:00.180Z,2.71
2023-01-23T23:04:36.770Z,2.72
2023-01-23T23:07:13.567Z,2.72
2023-01-23T23:09:50.023Z,2.71
2023-01-23T23:12:27.632Z,2.71
2023-01-23T23:15:03.995Z,2.70
2023-01-23T23:17:41.457Z,2.71
2023-01-23T23:20:19.740Z,2.70
2023-01-23T23:22:56.016Z,2.69
2023-01-23T23:25:33.415Z,2.69
2023-01-23T23:28:10.201Z,2.69
2023-01-23T23:30:46.580Z,2.69
2023-01-23T23:33:24.294Z,2.69
2023-01-23T23:36:00.835Z,2.69
2023-01-23T23:38:37.510Z,2.69
2023-01-23T23:41:17.498Z,2.68
2023-01-23T23:43:53.829Z,2.67
2023-01-23T23:46:30.399Z,2.66
2023-01-23T23:49:07.305Z,2.67
2023-01-23T23:51:43.847Z,2.68
2023-01-23T23:54:20.452Z,2.65
2023-01-23T23:56:56.880Z,2.65
2023-01-23T23:59:33.361Z,2.65
